ZLXY/XIY METAR and TAF weather

Enter ICAO airport designator
Station Type Date Time Source
ZLXY METAR 2021/09/20 06:00 UTC NOAA

ZLXY 200600Z 22004MPS 180V260 CAVOK 28/15 Q1010 NOSIG


Station Type Date Time Source
ZLXY Decoded METAR 2021/09/20 06:00 UTC NOAA

Xian/Xianyang, China (ZLXY) 34-26N 108-45E
Sep 20, 2021 - 02:00 AM EDT / 2021.09.20 0600 UTC
Wind: from the SW (220 degrees) at 9 MPH (8 KT) (direction variable):0
Visibility: greater than 7 mile(s):0
Temperature: 82 F (28 C)
Dew Point: 59 F (15 C)
Relative Humidity: 45%
Pressure (altimeter): 29.83 in. Hg (1010 hPa)
ob: ZLXY 200600Z 22004MPS 180V260 CAVOK 28/15 Q1010 NOSIG
cycle: 6

Station Type Date Time Source
ZLXY TAF 2021/09/20 06:03 UTC NOAA

TAF ZLXY 200305Z 2006/2106 24004MPS 6000 NSC TX30/2106Z TN15/2022Z

Example: see airport list